San Brendan — WDE8388 — position and weather

sailwx.info

Track history (hours):
 
Tides and Currents Weather Stations Pressure Air Temp Water Temp Dewpoint Dewpoint Depression Visibility Wind Speed Wind Dir Waves Ship Positions

San Brendan

Owner: Buffalo Marine Service, Inc., Houston, TX. More information available from US FCC via Universal Licensing System and Coast Guard Vessel Documentation Center.

Last reported at 2017-Dec-14 09:40 UTC. Time now 2017-Dec-16 05:12 UTC.
Position N 29°30' W 094°52'.

Length 28 m; draft 3.3 m.

Type: Tug. MMSI: 367404910.

Date/timePositionNaut miles runAvg speedWind from/ knotsBaromVisibWave heightAir tempDewpointWater temp
2017-Dec-14 09:40N 29°30' W 094°52'1 7.9
2017-Dec-14 09:30N 29°31' W 094°53'4 7.9
2017-Dec-14 09:00N 29°34' W 094°55'4 8.4
2017-Dec-14 08:30N 29°38' W 094°58'4 8.7
2017-Dec-14 08:01N 29°42' W 094°60'4 7.5
2017-Dec-14 07:30N 29°44' W 095°03'3 5.9
2017-Dec-14 06:59N 29°47' W 095°04'1 0.9
2017-Dec-14 05:38N 29°47' W 095°06'0 0.0
2017-Dec-14 05:21N 29°47' W 095°06'0 0.1
2017-Dec-14 05:00N 29°47' W 095°06'0 0.1
2017-Dec-14 04:29N 29°47' W 095°06'0 0.2
2017-Dec-14 03:59N 29°47' W 095°06'1 2.0
2017-Dec-14 03:28N 29°47' W 095°05'1 0.1
2017-Dec-13 13:35N 29°46' W 095°06'1 0.0
2017-Dec-12 17:08N 29°46' W 095°05'3 6.1
2017-Dec-12 16:38N 29°44' W 095°08'1 7.4
2017-Dec-12 16:30N 29°44' W 095°09'3 6.0
2017-Dec-12 15:59N 29°44' W 095°13'3 6.3
2017-Dec-12 15:29N 29°43' W 095°16'0 0.3
2017-Dec-12 15:00N 29°43' W 095°16'0 0.1
2017-Dec-12 13:57N 29°43' W 095°17'0 0.0
2017-Dec-12 13:30N 29°43' W 095°17'0 0.0
2017-Dec-12 12:57N 29°43' W 095°17'0 0.0
2017-Dec-12 12:17N 29°43' W 095°17'0 0.0
2017-Dec-12 12:00N 29°43' W 095°17'0 0.0
2017-Dec-12 11:30N 29°43' W 095°17'0 0.0
2017-Dec-12 11:00N 29°43' W 095°17'0 0.0
2017-Dec-12 10:30N 29°43' W 095°17'0 0.0
2017-Dec-12 10:00N 29°43' W 095°17'0 0.0
2017-Dec-12 09:29N 29°43' W 095°17'0 0.0
2017-Dec-12 09:00N 29°43' W 095°17'0 0.0
2017-Dec-12 08:30N 29°43' W 095°17'1 1.0
2017-Dec-12 08:00N 29°43' W 095°16'3 5.9
2017-Dec-12 07:30N 29°44' W 095°13'3 5.6
2017-Dec-12 06:58N 29°44' W 095°09'3 6.2
2017-Dec-12 06:30N 29°45' W 095°06'1 0.1
2017-Dec-11 17:51N 29°46' W 095°06'0 0.0
2017-Dec-10 11:19N 29°47' W 095°06'0 0.0
2017-Dec-10 10:56N 29°47' W 095°06'0 0.4
2017-Dec-10 10:29N 29°46' W 095°06'2 3.7
2017-Dec-10 10:00N 29°46' W 095°04'4 8.0
2017-Dec-10 09:30N 29°43' W 095°01'3 6.6
2017-Dec-10 09:01N 29°40' W 094°59'5 9.5
2017-Dec-10 08:30N 29°36' W 094°57'5 9.7
2017-Dec-10 08:00N 29°32' W 094°53'2 0.1
2017-Dec-09 17:22N 29°30' W 094°52'3 9.1
2017-Dec-09 17:00N 29°33' W 094°54'4 8.8
2017-Dec-09 16:30N 29°37' W 094°57'4 9.0
2017-Dec-09 16:00N 29°41' W 094°59'5 8.3
2017-Dec-09 15:28N 29°44' W 095°03'3 6.6
2017-Dec-09 15:00N 29°46' W 095°05'1 1.8
2017-Dec-09 14:29N 29°47' W 095°06'0 0.1
2017-Dec-09 14:00N 29°46' W 095°06'0 0.0
2017-Dec-09 11:49N 29°46' W 095°06'1 3.3
2017-Dec-09 11:30N 29°46' W 095°05'4 6.9
2017-Dec-09 11:00N 29°44' W 095°02'3 6.7
2017-Dec-09 10:30N 29°41' W 094°59'3 6.9
2017-Dec-09 10:00N 29°38' W 094°58'3 6.9
2017-Dec-09 09:31N 29°35' W 094°56'3 6.9
2017-Dec-09 09:00N 29°32' W 094°54'9 2.9
2017-Dec-09 05:44N 29°23' W 094°53'7 4.3
2017-Dec-09 04:00N 29°30' W 094°52'4 7.6
2017-Dec-09 03:30N 29°33' W 094°55'4 8.0
2017-Dec-09 03:00N 29°37' W 094°57'4 8.2
2017-Dec-09 02:30N 29°41' W 094°59'4 7.6
2017-Dec-09 02:00N 29°44' W 095°02'5 4.2
2017-Dec-09 00:52N 29°47' W 095°06'1 0.8
2017-Dec-08 23:51N 29°47' W 095°05'2 3.8
2017-Dec-08 23:23N 29°46' W 095°05'3 7.2
2017-Dec-08 23:00N 29°44' W 095°08'4 7.2
2017-Dec-08 22:30N 29°44' W 095°12'3 6.5
2017-Dec-08 21:58N 29°44' W 095°16'1 0.9
2017-Dec-08 21:26N 29°43' W 095°16'1 1.2
2017-Dec-08 21:00N 29°44' W 095°16'3 5.5
2017-Dec-08 20:28N 29°44' W 095°13'1 1.7
2017-Dec-08 19:38N 29°45' W 095°11'1 6.3
2017-Dec-08 19:28N 29°45' W 095°10'3 5.9
2017-Dec-08 18:58N 29°44' W 095°07'3 1.2
2017-Dec-08 16:38N 29°47' W 095°06'0 0.9
2017-Dec-08 16:29N 29°47' W 095°06'0 0.2
2017-Dec-08 15:57N 29°47' W 095°06'0 0.1
2017-Dec-08 15:20N 29°47' W 095°06'0 0.4
2017-Dec-08 14:44N 29°47' W 095°06'1 3.9
2017-Dec-08 14:28N 29°47' W 095°04'1 2.9
2017-Dec-08 13:59N 29°46' W 095°05'1 2.3
2017-Dec-08 13:23N 29°45' W 095°06'0 0.0
2017-Dec-08 09:46N 29°45' W 095°06'0 0.0
2017-Dec-08 09:19N 29°45' W 095°06'0 0.0
2017-Dec-08 02:10N 29°45' W 095°06'0 0.0
2017-Dec-08 01:58N 29°45' W 095°06'0 0.1
2017-Dec-08 01:13N 29°45' W 095°06'1 3.7
2017-Dec-08 00:55N 29°46' W 095°06'0 0.0
2017-Dec-07 15:05N 29°47' W 095°06'0 0.3
2017-Dec-07 14:40N 29°46' W 095°06'0 0.0
2017-Dec-07 10:43N 29°47' W 095°06'0 0.0
2017-Dec-07 10:22N 29°47' W 095°06'0 0.0
2017-Dec-07 08:37N 29°47' W 095°06'0 0.0
2017-Dec-07 08:28N 29°47' W 095°06'0 0.0
2017-Dec-07 07:02N 29°47' W 095°06'0 0.0
2017-Dec-07 06:53N 29°47' W 095°06'0 0.0
2017-Dec-07 06:22N 29°47' W 095°06'0 0.0
2017-Dec-07 05:56N 29°47' W 095°06'0 0.0
2017-Dec-07 05:29N 29°47' W 095°06'0 0.0
2017-Dec-07 05:00N 29°47' W 095°06'0 0.0
2017-Dec-07 02:24N 29°47' W 095°06'1 0.3
2017-Dec-06 23:09N 29°46' W 095°06'1 4.2
2017-Dec-06 22:57N 29°46' W 095°05'1 0.5
2017-Dec-06 20:57N 29°47' W 095°06'  
Track history (hours):
 
Tides and Currents Weather Stations Pressure Air Temp Water Temp Dewpoint Dewpoint Depression Visibility Wind Speed Wind Dir Waves Ship Positions

San Brendan

Owner: Buffalo Marine Service, Inc., Houston, TX. More information available from US FCC via Universal Licensing System and Coast Guard Vessel Documentation Center.

Last reported at 2017-Dec-14 09:40 UTC. Time now 2017-Dec-16 05:12 UTC.
Position N 29°30' W 094°52'.

Length 28 m; draft 3.3 m.

Type: Tug. MMSI: 367404910.

Date/timePositionNaut miles runAvg speedWind from/ knotsBaromVisibWave heightAir tempDewpointWater temp
2017-Dec-14 09:40N 29°30' W 094°52'1 7.9
2017-Dec-14 09:30N 29°31' W 094°53'4 7.9
2017-Dec-14 09:00N 29°34' W 094°55'4 8.4
2017-Dec-14 08:30N 29°38' W 094°58'4 8.7
2017-Dec-14 08:01N 29°42' W 094°60'4 7.5
2017-Dec-14 07:30N 29°44' W 095°03'3 5.9
2017-Dec-14 06:59N 29°47' W 095°04'1 0.9
2017-Dec-14 05:38N 29°47' W 095°06'0 0.0
2017-Dec-14 05:21N 29°47' W 095°06'0 0.1
2017-Dec-14 05:00N 29°47' W 095°06'0 0.1
2017-Dec-14 04:29N 29°47' W 095°06'0 0.2
2017-Dec-14 03:59N 29°47' W 095°06'1 2.0
2017-Dec-14 03:28N 29°47' W 095°05'1 0.1
2017-Dec-13 13:35N 29°46' W 095°06'1 0.0
2017-Dec-12 17:08N 29°46' W 095°05'3 6.1
2017-Dec-12 16:38N 29°44' W 095°08'1 7.4
2017-Dec-12 16:30N 29°44' W 095°09'3 6.0
2017-Dec-12 15:59N 29°44' W 095°13'3 6.3
2017-Dec-12 15:29N 29°43' W 095°16'0 0.3
2017-Dec-12 15:00N 29°43' W 095°16'0 0.1
2017-Dec-12 13:57N 29°43' W 095°17'0 0.0
2017-Dec-12 13:30N 29°43' W 095°17'0 0.0
2017-Dec-12 12:57N 29°43' W 095°17'0 0.0
2017-Dec-12 12:17N 29°43' W 095°17'0 0.0
2017-Dec-12 12:00N 29°43' W 095°17'0 0.0
2017-Dec-12 11:30N 29°43' W 095°17'0 0.0
2017-Dec-12 11:00N 29°43' W 095°17'0 0.0
2017-Dec-12 10:30N 29°43' W 095°17'0 0.0
2017-Dec-12 10:00N 29°43' W 095°17'0 0.0
2017-Dec-12 09:29N 29°43' W 095°17'0 0.0
2017-Dec-12 09:00N 29°43' W 095°17'0 0.0
2017-Dec-12 08:30N 29°43' W 095°17'1 1.0
2017-Dec-12 08:00N 29°43' W 095°16'3 5.9
2017-Dec-12 07:30N 29°44' W 095°13'3 5.6
2017-Dec-12 06:58N 29°44' W 095°09'3 6.2
2017-Dec-12 06:30N 29°45' W 095°06'1 0.1
2017-Dec-11 17:51N 29°46' W 095°06'0 0.0
2017-Dec-10 11:19N 29°47' W 095°06'0 0.0
2017-Dec-10 10:56N 29°47' W 095°06'0 0.4
2017-Dec-10 10:29N 29°46' W 095°06'2 3.7
2017-Dec-10 10:00N 29°46' W 095°04'4 8.0
2017-Dec-10 09:30N 29°43' W 095°01'3 6.6
2017-Dec-10 09:01N 29°40' W 094°59'5 9.5
2017-Dec-10 08:30N 29°36' W 094°57'5 9.7
2017-Dec-10 08:00N 29°32' W 094°53'2 0.1
2017-Dec-09 17:22N 29°30' W 094°52'3 9.1
2017-Dec-09 17:00N 29°33' W 094°54'4 8.8
2017-Dec-09 16:30N 29°37' W 094°57'4 9.0
2017-Dec-09 16:00N 29°41' W 094°59'5 8.3
2017-Dec-09 15:28N 29°44' W 095°03'3 6.6
2017-Dec-09 15:00N 29°46' W 095°05'1 1.8
2017-Dec-09 14:29N 29°47' W 095°06'0 0.1
2017-Dec-09 14:00N 29°46' W 095°06'0 0.0
2017-Dec-09 11:49N 29°46' W 095°06'1 3.3
2017-Dec-09 11:30N 29°46' W 095°05'4 6.9
2017-Dec-09 11:00N 29°44' W 095°02'3 6.7
2017-Dec-09 10:30N 29°41' W 094°59'3 6.9
2017-Dec-09 10:00N 29°38' W 094°58'3 6.9
2017-Dec-09 09:31N 29°35' W 094°56'3 6.9
2017-Dec-09 09:00N 29°32' W 094°54'9 2.9
2017-Dec-09 05:44N 29°23' W 094°53'7 4.3
2017-Dec-09 04:00N 29°30' W 094°52'4 7.6
2017-Dec-09 03:30N 29°33' W 094°55'4 8.0
2017-Dec-09 03:00N 29°37' W 094°57'4 8.2
2017-Dec-09 02:30N 29°41' W 094°59'4 7.6
2017-Dec-09 02:00N 29°44' W 095°02'5 4.2
2017-Dec-09 00:52N 29°47' W 095°06'1 0.8
2017-Dec-08 23:51N 29°47' W 095°05'2 3.8
2017-Dec-08 23:23N 29°46' W 095°05'3 7.2
2017-Dec-08 23:00N 29°44' W 095°08'4 7.2
2017-Dec-08 22:30N 29°44' W 095°12'3 6.5
2017-Dec-08 21:58N 29°44' W 095°16'1 0.9
2017-Dec-08 21:26N 29°43' W 095°16'1 1.2
2017-Dec-08 21:00N 29°44' W 095°16'3 5.5
2017-Dec-08 20:28N 29°44' W 095°13'1 1.7
2017-Dec-08 19:38N 29°45' W 095°11'1 6.3
2017-Dec-08 19:28N 29°45' W 095°10'3 5.9
2017-Dec-08 18:58N 29°44' W 095°07'3 1.2
2017-Dec-08 16:38N 29°47' W 095°06'0 0.9
2017-Dec-08 16:29N 29°47' W 095°06'0 0.2
2017-Dec-08 15:57N 29°47' W 095°06'0 0.1
2017-Dec-08 15:20N 29°47' W 095°06'0 0.4
2017-Dec-08 14:44N 29°47' W 095°06'1 3.9
2017-Dec-08 14:28N 29°47' W 095°04'1 2.9
2017-Dec-08 13:59N 29°46' W 095°05'1 2.3
2017-Dec-08 13:23N 29°45' W 095°06'0 0.0
2017-Dec-08 09:46N 29°45' W 095°06'0 0.0
2017-Dec-08 09:19N 29°45' W 095°06'0 0.0
2017-Dec-08 02:10N 29°45' W 095°06'0 0.0
2017-Dec-08 01:58N 29°45' W 095°06'0 0.1
2017-Dec-08 01:13N 29°45' W 095°06'1 3.7
2017-Dec-08 00:55N 29°46' W 095°06'0 0.0
2017-Dec-07 15:05N 29°47' W 095°06'0 0.3
2017-Dec-07 14:40N 29°46' W 095°06'0 0.0
2017-Dec-07 10:43N 29°47' W 095°06'0 0.0
2017-Dec-07 10:22N 29°47' W 095°06'0 0.0
2017-Dec-07 08:37N 29°47' W 095°06'0 0.0
2017-Dec-07 08:28N 29°47' W 095°06'0 0.0
2017-Dec-07 07:02N 29°47' W 095°06'0 0.0
2017-Dec-07 06:53N 29°47' W 095°06'0 0.0
2017-Dec-07 06:22N 29°47' W 095°06'0 0.0
2017-Dec-07 05:56N 29°47' W 095°06'0 0.0
2017-Dec-07 05:29N 29°47' W 095°06'0 0.0
2017-Dec-07 05:00N 29°47' W 095°06'0 0.0
2017-Dec-07 02:24N 29°47' W 095°06'1 0.3
2017-Dec-06 23:09N 29°46' W 095°06'1 4.2
2017-Dec-06 22:57N 29°46' W 095°05'1 0.5
2017-Dec-06 20:57N 29°47' W 095°06'  

Dump ship's entire track history